Airfield :
LOGIN :

Register | Disclaimer

   EN    FR    IT 

 










Legend :    VFR   Marginal VFR   IFR   Intensive IFR   Very Intensive IFR
Visi :
Ceiling :
>= 8 km
>= 3000ft
5 to 8 km
1000 to 3000 ft
1500m to 5 km
500 to 1000 ft
800 to 1500m
200 to 500 ft
< 800m
< 200 ft
Symbols :   Thunderstorms  Fog  Heavy snow  Heavy precipitations  Wind > 20 kt
SIGMETs :     Misc.  Thunderstorms  Icing  Turbulence  Mountain Waves  Volcanic Ashes







- Airport Elevation : 93 ft
- IATA code : XRY


LEJR - Jerez

CURRENT METAR :
  • 181800Z 12012KT 080V160 9999 -RA BKN032 BKN045 13/12 Q0999

EXPIRED METARs :
  • 181730Z 13013KT 100V160 9999 FEW025 BKN045 13/12 Q0999
  • 181700Z 13011KT 100V160 9999 FEW025 BKN045 13/12 Q1000
  • 181630Z 14011KT 100V170 9999 FEW035 BKN055 14/12 Q1000 RERA
  • 181600Z 15011KT 110V180 9999 -RA FEW044 SCT050 14/12 Q1000
  • 181530Z 15011KT 110V190 9999 FEW027 SCT050 15/12 Q1000
  • 181500Z 14012KT 100V170 9999 FEW027 SCT050 15/13 Q1000

TAF TAF LEJR
Valid from the 18 at 18:00 until the 19 at 18:00 UTC


181700Z 1818/1918 14010KT 9999 FEW030 SCT050 TX18/1915Z TN09/1906Z
BECMG 1820/1822 25008KT
TEMPO 1818/1824 4000 SHRA SCT025TCU BKN030
No reported NOTAMs for that airfield.
2 SIGMETs reported for the Madrid FIR (LECM) :
 
Embedded thunderstorms
LECM SIGMET 9 VALID 181800/182000 LEVA
LECM MADRID FIR/UIR EMBD TS OBS AT 1745Z WI N3751 W00327 - N3549 W00456 - N3546 W002 - N3754 W00132 - N3751 W00327 TOP FL380 MOV NE NC=
Embedded thunderstorms
LECM SIGMET 8 VALID 181600/181800 LEVA
LECM MADRID FIR/UIR EMBD TS OBS AT 1542Z WI N3551 W00552 - N3747 W00501 - N3758 W00136 - N3552 W00201 - N3551 W00552 TOP FL380 MOV NE NC=



MET'MAP, your aeronautical weather chart ! - Copyright ORBIFLY December 2007 - Disclaimer

ORBIFLY MET'MAP TEAM :

Programming & Development : Alexandra Zaïnal
Concept & Development : Baudouin d'Aumeries
Co-Development & Prog : Marc-Olivier Méhu
Technical & hardware support : Manuel Goepfert

Contact : metmap@orbifly.com




SOURCES & CREDITS :

   NOAA